createdAt,value
2022-10-18T00:01:12.763Z,100779.31
2022-10-18T00:04:37.229Z,100761.09
2022-10-18T00:07:59.182Z,100747.22
2022-10-18T00:11:21.049Z,100742.00
2022-10-18T00:14:43.054Z,100750.72
2022-10-18T00:18:05.460Z,100749.97
2022-10-18T00:21:28.914Z,100753.44
2022-10-18T00:24:50.406Z,100753.44
2022-10-18T00:28:12.167Z,100758.66
2022-10-18T00:31:36.008Z,100755.25
2022-10-18T00:34:57.741Z,100758.78
2022-10-18T00:38:20.893Z,100773.00
2022-10-18T00:41:43.107Z,100780.00
2022-10-18T00:45:17.371Z,100749.63
2022-10-18T00:48:39.355Z,100726.28
2022-10-18T00:52:05.182Z,100726.31
2022-10-18T00:55:30.170Z,100696.22
2022-10-18T00:58:54.012Z,100661.66
2022-10-18T01:02:18.482Z,100664.97
2022-10-18T01:05:45.425Z,100641.88
2022-10-18T01:09:14.456Z,100648.66
2022-10-18T01:12:48.875Z,100643.50
2022-10-18T01:16:19.373Z,100626.16
2022-10-18T01:20:13.794Z,100593.94
2022-10-18T01:23:56.873Z,100615.06
2022-10-18T01:27:38.872Z,100601.22
2022-10-18T01:31:05.214Z,100587.47
2022-10-18T01:34:31.478Z,100571.03
2022-10-18T01:37:57.452Z,100558.19
2022-10-18T01:41:24.309Z,100533.09
2022-10-18T01:44:51.412Z,100527.78
2022-10-18T01:48:16.869Z,100477.31
2022-10-18T01:51:38.708Z,100500.03
2022-10-18T01:55:02.696Z,100500.09
2022-10-18T01:58:32.889Z,100492.38
2022-10-18T02:02:02.657Z,100480.31
2022-10-18T02:05:32.563Z,100471.78
2022-10-18T02:09:00.005Z,100465.81
2022-10-18T02:12:23.136Z,100465.00
2022-10-18T02:15:48.326Z,100469.31
2022-10-18T02:19:17.277Z,100468.47
2022-10-18T02:22:42.777Z,100472.28
2022-10-18T02:26:05.049Z,100485.03
2022-10-18T02:29:27.532Z,100476.41
2022-10-18T02:32:55.637Z,100472.03
2022-10-18T02:36:25.307Z,100469.44
2022-10-18T02:39:52.102Z,100479.09
2022-10-18T02:43:15.636Z,100479.22
2022-10-18T02:46:37.816Z,100471.44
2022-10-18T02:49:59.862Z,100451.03
2022-10-18T02:53:21.970Z,100445.88
2022-10-18T02:56:45.222Z,100452.03
2022-10-18T03:00:08.730Z,100440.06
2022-10-18T03:03:30.697Z,100428.16
2022-10-18T03:06:52.724Z,100408.56
2022-10-18T03:10:14.744Z,100421.34
2022-10-18T03:13:38.109Z,100395.53
2022-10-18T03:17:00.333Z,100391.28
2022-10-18T03:20:22.089Z,100387.78
2022-10-18T03:23:43.834Z,100381.72
2022-10-18T03:27:05.836Z,100388.63
2022-10-18T03:30:30.200Z,100356.09
2022-10-18T03:33:52.245Z,100367.13
2022-10-18T03:37:13.962Z,100367.38
2022-10-18T03:40:36.075Z,100367.38
2022-10-18T03:43:58.220Z,100355.38
2022-10-18T03:47:21.604Z,100368.16
2022-10-18T03:50:47.894Z,100357.09
2022-10-18T03:54:09.830Z,100360.34
2022-10-18T03:57:32.035Z,100357.84
2022-10-18T04:00:56.258Z,100355.69
2022-10-18T04:04:19.499Z,100377.25
2022-10-18T04:07:41.698Z,100386.13
2022-10-18T04:11:08.434Z,100385.28
2022-10-18T04:14:30.673Z,100390.41
2022-10-18T04:17:52.825Z,100371.34
2022-10-18T04:21:16.329Z,100379.25
2022-10-18T04:24:38.049Z,100381.75
2022-10-18T04:28:00.040Z,100379.34
2022-10-18T04:31:22.005Z,100388.00
2022-10-18T04:38:11.774Z,100341.56
2022-10-18T04:41:34.062Z,100346.75
2022-10-18T04:44:57.559Z,100347.72
2022-10-18T04:48:20.004Z,100326.59
2022-10-18T04:51:42.005Z,100341.88
2022-10-18T04:55:05.483Z,100336.78
2022-10-18T04:58:27.658Z,100347.22
2022-10-18T05:01:49.859Z,100344.63
2022-10-18T05:05:14.054Z,100340.38
2022-10-18T05:08:39.094Z,100342.75
2022-10-18T05:12:02.506Z,100313.03
2022-10-18T05:15:24.089Z,100347.19
2022-10-18T05:18:46.117Z,100346.66
2022-10-18T05:22:08.260Z,100354.88
2022-10-18T05:25:30.245Z,100289.78
2022-10-18T05:28:53.755Z,100324.53
2022-10-18T05:32:15.831Z,100338.47
2022-10-18T05:35:37.954Z,100357.59
2022-10-18T05:39:02.542Z,100370.53
2022-10-18T05:42:27.485Z,100374.78
2022-10-18T05:45:51.383Z,100349.28
2022-10-18T05:49:13.928Z,100367.91
2022-10-18T05:52:36.037Z,100379.81
2022-10-18T05:56:01.720Z,100385.69
2022-10-18T05:59:23.931Z,100399.44
2022-10-18T06:02:47.070Z,100390.78
2022-10-18T06:06:11.893Z,100394.78
2022-10-18T06:09:33.651Z,100382.69
2022-10-18T06:12:55.466Z,100396.22
2022-10-18T06:16:20.642Z,100381.75
2022-10-18T06:19:44.636Z,100419.56
2022-10-18T06:23:06.550Z,100415.44
2022-10-18T06:26:29.376Z,100424.66
2022-10-18T06:29:51.139Z,100392.38
2022-10-18T06:33:13.076Z,100422.56
2022-10-18T06:36:42.552Z,100437.97
2022-10-18T06:40:04.045Z,100449.19
2022-10-18T06:43:26.140Z,100442.53
2022-10-18T06:46:49.428Z,100456.22
2022-10-18T06:50:11.859Z,100465.53
2022-10-18T06:53:43.765Z,100470.03
2022-10-18T06:57:06.372Z,100461.38
2022-10-18T07:00:28.801Z,100457.94
2022-10-18T07:03:53.326Z,100462.25
2022-10-18T07:07:15.075Z,100472.56
2022-10-18T07:10:38.469Z,100483.06
2022-10-18T07:14:04.954Z,100477.25
2022-10-18T07:17:26.824Z,100496.44
2022-10-18T07:20:48.774Z,100486.97
2022-10-18T07:24:10.728Z,100492.88
2022-10-18T07:27:37.701Z,100477.63
2022-10-18T07:31:06.362Z,100492.78
2022-10-18T07:34:30.873Z,100466.44
2022-10-18T07:37:52.774Z,100481.50
2022-10-18T07:41:15.380Z,100466.94
2022-10-18T07:44:39.385Z,100503.34
2022-10-18T07:48:01.840Z,100500.59
2022-10-18T07:51:23.980Z,100514.22
2022-10-18T07:54:45.797Z,100511.84
2022-10-18T07:58:07.989Z,100523.78
2022-10-18T08:01:31.176Z,100534.34
2022-10-18T08:04:53.203Z,100513.22
2022-10-18T08:08:15.273Z,100539.78
2022-10-18T08:11:37.109Z,100536.31
2022-10-18T08:14:58.829Z,100536.25
2022-10-18T08:18:22.244Z,100521.03
2022-10-18T08:21:44.500Z,100542.25
2022-10-18T08:25:07.196Z,100540.50
2022-10-18T08:28:29.564Z,100561.06
2022-10-18T08:31:51.942Z,100567.06
2022-10-18T08:35:15.337Z,100567.13
2022-10-18T08:38:39.206Z,100554.34
2022-10-18T08:42:39.441Z,100566.28
2022-10-18T08:46:01.908Z,100550.66
2022-10-18T08:49:31.120Z,100552.56
2022-10-18T08:53:02.659Z,100551.72
2022-10-18T08:56:24.998Z,100575.63
2022-10-18T08:59:48.320Z,100579.13
2022-10-18T09:03:27.543Z,100581.56
2022-10-18T09:07:04.532Z,100579.00
2022-10-18T09:10:42.164Z,100572.16
2022-10-18T09:14:34.480Z,100589.44
2022-10-18T09:18:09.729Z,100587.38
2022-10-18T09:21:42.397Z,100587.94
2022-10-18T09:25:15.540Z,100596.38
2022-10-18T09:28:47.359Z,100600.19
2022-10-18T09:32:25.618Z,100601.59
2022-10-18T09:35:53.846Z,100592.94
2022-10-18T09:39:20.277Z,100609.00
2022-10-18T09:42:54.784Z,100589.72
2022-10-18T09:46:20.514Z,100629.06
2022-10-18T09:49:46.505Z,100622.47
2022-10-18T09:53:18.558Z,100629.31
2022-10-18T09:56:46.601Z,100625.53
2022-10-18T10:00:18.525Z,100617.59
2022-10-18T10:03:43.357Z,100630.03
2022-10-18T10:07:10.841Z,100612.47
2022-10-18T10:10:33.675Z,100606.75
2022-10-18T10:13:59.011Z,100600.72
2022-10-18T10:17:26.190Z,100608.91
2022-10-18T10:20:53.444Z,100610.47
2022-10-18T10:24:27.372Z,100597.41
2022-10-18T10:27:52.604Z,100583.91
2022-10-18T10:31:28.897Z,100591.34
2022-10-18T10:34:51.219Z,100592.91
2022-10-18T10:38:24.775Z,100621.38
2022-10-18T10:41:49.802Z,100615.19
2022-10-18T10:45:14.910Z,100613.38
2022-10-18T10:48:48.477Z,100601.53
2022-10-18T10:52:37.110Z,100600.31
2022-10-18T10:56:01.848Z,100603.69
2022-10-18T10:59:26.337Z,100600.22
2022-10-18T11:02:59.294Z,100608.00
2022-10-18T11:06:46.813Z,100594.88
2022-10-18T11:10:14.820Z,100588.53
2022-10-18T11:13:57.061Z,100588.38
2022-10-18T11:17:40.367Z,100596.38
2022-10-18T11:21:08.121Z,100585.19
2022-10-18T11:24:30.371Z,100606.47
2022-10-18T11:28:02.974Z,100610.66
2022-10-18T11:31:31.603Z,100590.03
2022-10-18T11:35:08.620Z,100598.34
2022-10-18T11:38:38.262Z,100599.69
2022-10-18T11:42:08.146Z,100608.13
2022-10-18T11:45:37.724Z,100611.59
2022-10-18T11:49:17.088Z,100622.91
2022-10-18T11:52:46.085Z,100615.69
2022-10-18T11:56:16.135Z,100621.69
2022-10-18T11:59:45.920Z,100596.47
2022-10-18T12:03:24.884Z,100622.66
2022-10-18T12:06:51.963Z,100611.88
2022-10-18T12:10:26.278Z,100629.75
2022-10-18T12:14:03.410Z,100635.13
2022-10-18T12:17:47.653Z,100625.84
2022-10-18T12:21:14.111Z,100614.41
2022-10-18T12:24:41.311Z,100574.75
2022-10-18T12:28:11.242Z,100600.81
2022-10-18T12:31:38.016Z,100603.44
2022-10-18T12:35:04.336Z,100607.75
2022-10-18T12:38:31.131Z,100615.25
2022-10-18T12:41:55.784Z,100618.78
2022-10-18T12:45:33.182Z,100615.19
2022-10-18T12:49:04.601Z,100633.88
2022-10-18T12:52:34.673Z,100630.19
2022-10-18T12:56:57.976Z,100632.78
2022-10-18T13:00:55.355Z,100633.34
2022-10-18T13:04:35.219Z,100632.78
2022-10-18T13:08:24.583Z,100628.00
2022-10-18T13:11:46.919Z,100635.06
2022-10-18T13:15:29.190Z,100611.69
2022-10-18T13:18:58.427Z,100621.47
2022-10-18T13:22:34.988Z,100602.72
2022-10-18T13:26:05.639Z,100613.78
2022-10-18T13:29:57.537Z,100625.97
2022-10-18T13:33:38.848Z,100586.03
2022-10-18T13:37:04.514Z,100577.56
2022-10-18T13:40:27.336Z,100614.75
2022-10-18T13:44:28.539Z,100605.06
2022-10-18T13:47:50.728Z,100607.75
2022-10-18T13:51:48.302Z,100606.97
2022-10-18T13:55:40.148Z,100601.84
2022-10-18T13:59:30.058Z,100601.09
2022-10-18T14:03:03.485Z,100595.72
2022-10-18T14:06:28.787Z,100603.66
2022-10-18T14:09:56.868Z,100603.66
2022-10-18T14:13:24.587Z,100597.72
2022-10-18T14:16:49.807Z,100596.88
2022-10-18T14:20:27.273Z,100579.06
2022-10-18T14:23:52.295Z,100589.09
2022-10-18T14:27:21.692Z,100584.78
2022-10-18T14:30:57.866Z,100576.16
2022-10-18T14:34:20.293Z,100584.94
2022-10-18T14:37:42.211Z,100573.69
2022-10-18T14:41:14.487Z,100587.59
2022-10-18T14:44:36.724Z,100573.97
2022-10-18T14:48:15.903Z,100580.16
2022-10-18T14:51:38.345Z,100582.91
2022-10-18T14:55:01.124Z,100577.97
2022-10-18T14:58:23.943Z,100551.00
2022-10-18T15:01:58.054Z,100587.75
2022-10-18T15:05:24.685Z,100584.56
2022-10-18T15:08:47.579Z,100575.97
2022-10-18T15:12:10.223Z,100580.25
2022-10-18T15:15:37.381Z,100576.84
2022-10-18T15:19:07.712Z,100582.06
2022-10-18T15:22:33.012Z,100583.06
2022-10-18T15:26:03.241Z,100573.63
2022-10-18T15:29:25.786Z,100590.13
2022-10-18T15:32:53.839Z,100591.00
2022-10-18T15:36:27.451Z,100593.97
2022-10-18T15:40:17.696Z,100579.41
2022-10-18T15:43:39.946Z,100586.06
2022-10-18T15:47:21.149Z,100593.97
2022-10-18T15:50:47.149Z,100600.16
2022-10-18T15:54:19.095Z,100595.16
2022-10-18T15:57:42.777Z,100586.69
2022-10-18T16:01:05.339Z,100597.94
2022-10-18T16:04:29.506Z,100609.31
2022-10-18T16:07:53.101Z,100602.38
2022-10-18T16:11:18.002Z,100612.88
2022-10-18T16:14:41.317Z,100606.03
2022-10-18T16:18:03.517Z,100600.81
2022-10-18T16:21:27.736Z,100605.06
2022-10-18T16:24:50.142Z,100605.09
2022-10-18T16:28:15.257Z,100592.19
2022-10-18T16:31:38.846Z,100611.25
2022-10-18T16:35:00.895Z,100608.56
2022-10-18T16:38:32.465Z,100602.50
2022-10-18T16:41:56.690Z,100603.41
2022-10-18T16:45:19.669Z,100595.75
2022-10-18T16:48:43.291Z,100600.13
2022-10-18T16:52:05.005Z,100587.16
2022-10-18T16:55:27.029Z,100582.13
2022-10-18T16:58:50.173Z,100576.34
2022-10-18T17:02:12.300Z,100578.16
2022-10-18T17:05:35.959Z,100579.22
2022-10-18T17:08:58.674Z,100581.16
2022-10-18T17:12:20.848Z,100581.31
2022-10-18T17:15:43.261Z,100557.72
2022-10-18T17:19:07.630Z,100573.94
2022-10-18T17:22:30.565Z,100580.00
2022-10-18T17:26:04.999Z,100565.53
2022-10-18T17:29:28.661Z,100569.69
2022-10-18T17:32:50.275Z,100571.50
2022-10-18T17:36:12.258Z,100569.69
2022-10-18T17:39:35.668Z,100559.28
2022-10-18T17:42:57.768Z,100553.38
2022-10-18T17:46:19.938Z,100520.09
2022-10-18T17:49:43.956Z,100553.22
2022-10-18T17:53:05.996Z,100523.63
2022-10-18T17:56:33.386Z,100533.69
2022-10-18T17:59:56.453Z,100539.50
2022-10-18T18:03:18.502Z,100525.66
2022-10-18T18:06:41.518Z,100516.22
2022-10-18T18:10:03.631Z,100512.94
2022-10-18T18:13:26.924Z,100516.56
2022-10-18T18:16:49.274Z,100505.53
2022-10-18T18:20:12.407Z,100514.09
2022-10-18T18:23:34.203Z,100508.16
2022-10-18T18:26:57.098Z,100496.22
2022-10-18T18:30:21.914Z,100502.59
2022-10-18T18:33:44.436Z,100489.00
2022-10-18T18:37:06.576Z,100494.09
2022-10-18T18:40:28.626Z,100492.41
2022-10-18T18:43:53.204Z,100493.31
2022-10-18T18:50:50.028Z,100481.31
2022-10-18T18:54:13.974Z,100495.94
2022-10-18T18:57:36.240Z,100481.19
2022-10-18T19:00:58.465Z,100482.09
2022-10-18T19:04:21.722Z,100475.94
2022-10-18T19:07:43.951Z,100435.22
2022-10-18T19:11:08.953Z,100475.09
2022-10-18T19:14:31.758Z,100467.19
2022-10-18T19:17:53.741Z,100456.00
2022-10-18T19:21:17.049Z,100446.41
2022-10-18T19:24:39.353Z,100443.97
2022-10-18T19:28:01.428Z,100436.38
2022-10-18T19:31:24.346Z,100431.28
2022-10-18T19:34:46.229Z,100434.78
2022-10-18T19:38:09.263Z,100430.66
2022-10-18T19:41:30.920Z,100436.84
2022-10-18T19:44:53.002Z,100431.88
2022-10-18T19:48:14.848Z,100433.69
2022-10-18T19:51:37.057Z,100430.38
2022-10-18T19:55:00.609Z,100423.69
2022-10-18T19:58:22.753Z,100430.63
2022-10-18T20:01:45.425Z,100432.41
2022-10-18T20:05:08.221Z,100441.13
2022-10-18T20:08:33.814Z,100435.09
2022-10-18T20:11:56.869Z,100423.91
2022-10-18T20:15:19.257Z,100423.56
2022-10-18T20:18:43.215Z,100420.06
2022-10-18T20:22:05.099Z,100405.56
2022-10-18T20:25:27.102Z,100425.19
2022-10-18T20:28:56.174Z,100403.47
2022-10-18T20:32:17.909Z,100399.88
2022-10-18T20:35:39.789Z,100396.44
2022-10-18T20:39:02.027Z,100396.38
2022-10-18T20:42:23.954Z,100389.34
2022-10-18T20:45:47.124Z,100369.78
2022-10-18T20:49:10.073Z,100350.16
2022-10-18T20:52:32.133Z,100383.28
2022-10-18T20:55:53.940Z,100386.56
2022-10-18T20:59:15.792Z,100390.84
2022-10-18T21:02:39.106Z,100386.50
2022-10-18T21:06:02.353Z,100390.84
2022-10-18T21:09:24.301Z,100378.88
2022-10-18T21:12:48.141Z,100381.47
2022-10-18T21:16:10.319Z,100368.44
2022-10-18T21:19:33.910Z,100365.06
2022-10-18T21:22:57.507Z,100359.09
2022-10-18T21:26:21.334Z,100355.59
2022-10-18T21:29:43.220Z,100352.34
2022-10-18T21:33:07.127Z,100343.63
2022-10-18T21:36:33.427Z,100355.69
2022-10-18T21:39:55.080Z,100347.19
2022-10-18T21:43:16.936Z,100331.91
2022-10-18T21:46:40.228Z,100339.59
2022-10-18T21:50:02.354Z,100351.44
2022-10-18T21:53:25.690Z,100346.19
2022-10-18T21:56:47.858Z,100348.78
2022-10-18T22:00:10.827Z,100345.38
2022-10-18T22:03:32.793Z,100344.53
2022-10-18T22:06:54.653Z,100335.22
2022-10-18T22:10:18.006Z,100329.88
2022-10-18T22:13:40.219Z,100335.13
2022-10-18T22:17:02.116Z,100329.16
2022-10-18T22:20:23.912Z,100325.84
2022-10-18T22:23:47.420Z,100310.28
2022-10-18T22:27:10.722Z,100323.16
2022-10-18T22:30:32.981Z,100313.97
2022-10-18T22:33:55.724Z,100313.78
2022-10-18T22:37:17.164Z,100311.09
2022-10-18T22:40:38.863Z,100308.50
2022-10-18T22:44:03.585Z,100300.78
2022-10-18T22:47:25.466Z,100301.63
2022-10-18T22:50:47.174Z,100263.47
2022-10-18T22:54:09.169Z,100292.34
2022-10-18T22:57:31.077Z,100259.31
2022-10-18T23:01:01.584Z,100289.69
2022-10-18T23:04:23.696Z,100287.13
2022-10-18T23:07:49.163Z,100293.25
2022-10-18T23:11:10.671Z,100283.75
2022-10-18T23:14:32.403Z,100285.56
2022-10-18T23:17:55.843Z,100277.63
2022-10-18T23:21:17.487Z,100275.88
2022-10-18T23:24:39.278Z,100275.94
2022-10-18T23:28:01.214Z,100266.50
2022-10-18T23:31:25.486Z,100273.47
2022-10-18T23:34:49.044Z,100284.84
2022-10-18T23:38:11.087Z,100269.59
2022-10-18T23:41:32.947Z,100249.31
2022-10-18T23:44:54.981Z,100289.47
2022-10-18T23:48:16.750Z,100289.50
2022-10-18T23:51:39.980Z,100288.78
2022-10-18T23:55:02.048Z,100286.25
2022-10-18T23:58:24.540Z,100291.72
